createdAt,value
2022-10-22T00:03:52.709Z,88.5
2022-10-22T00:08:52.796Z,88.5
2022-10-22T00:13:52.729Z,89.0
2022-10-22T00:18:52.719Z,89.0
2022-10-22T00:23:52.728Z,89.0
2022-10-22T00:28:52.720Z,89.5
2022-10-22T00:33:52.727Z,89.5
2022-10-22T00:38:52.729Z,89.5
2022-10-22T00:43:52.736Z,89.5
2022-10-22T00:48:52.741Z,89.5
2022-10-22T00:53:52.735Z,89.5
2022-10-22T00:58:52.741Z,89.5
2022-10-22T01:03:52.751Z,89.5
2022-10-22T01:08:52.808Z,89.5
2022-10-22T01:13:52.739Z,89.5
2022-10-22T01:18:52.756Z,90.0
2022-10-22T01:23:52.748Z,90.0
2022-10-22T01:28:52.750Z,90.0
2022-10-22T01:33:52.752Z,90.0
2022-10-22T01:38:52.757Z,90.0
2022-10-22T01:43:52.754Z,90.5
2022-10-22T01:48:52.773Z,90.5
2022-10-22T01:53:52.761Z,90.5
2022-10-22T01:58:52.778Z,90.5
2022-10-22T02:03:52.767Z,90.5
2022-10-22T02:08:52.838Z,90.5
2022-10-22T02:13:52.774Z,90.5
2022-10-22T02:18:52.773Z,90.5
2022-10-22T02:23:52.780Z,90.5
2022-10-22T02:28:52.774Z,91.0
2022-10-22T02:33:52.797Z,91.0
2022-10-22T02:38:52.780Z,91.5
2022-10-22T02:43:52.790Z,91.0
2022-10-22T02:48:52.792Z,91.5
2022-10-22T02:53:52.795Z,91.5
2022-10-22T02:58:52.793Z,91.5
2022-10-22T03:03:52.796Z,91.5
2022-10-22T03:08:52.859Z,91.5
2022-10-22T03:13:52.810Z,92.0
2022-10-22T03:18:52.807Z,92.0
2022-10-22T03:23:52.814Z,91.5
2022-10-22T03:28:52.815Z,91.5
2022-10-22T03:33:52.825Z,92.0
2022-10-22T03:38:52.812Z,92.0
2022-10-22T03:43:52.827Z,92.5
2022-10-22T03:48:52.821Z,93.0
2022-10-22T03:53:52.942Z,92.5
2022-10-22T03:58:52.843Z,92.5
2022-10-22T04:03:52.839Z,92.5
2022-10-22T04:08:52.878Z,92.5
2022-10-22T04:13:52.842Z,93.0
2022-10-22T04:18:52.853Z,93.0
2022-10-22T04:23:52.845Z,93.0
2022-10-22T04:28:52.850Z,93.5
2022-10-22T04:33:52.852Z,93.5
2022-10-22T04:38:52.860Z,94.0
2022-10-22T04:43:52.866Z,94.0
2022-10-22T04:48:52.865Z,94.0
2022-10-22T04:53:52.872Z,94.0
2022-10-22T04:58:52.875Z,94.0
2022-10-22T05:03:52.871Z,94.0
2022-10-22T05:08:52.928Z,94.0
2022-10-22T05:13:52.885Z,94.0
2022-10-22T05:18:52.877Z,94.0
2022-10-22T05:23:52.878Z,94.0
2022-10-22T05:28:52.886Z,94.0
2022-10-22T05:33:52.900Z,94.5
2022-10-22T05:38:52.901Z,94.5
2022-10-22T05:43:52.893Z,94.5
2022-10-22T05:48:52.896Z,94.5
2022-10-22T05:53:52.899Z,94.5
2022-10-22T05:58:52.996Z,94.5
2022-10-22T06:03:52.913Z,94.5
2022-10-22T06:13:52.915Z,94.5
2022-10-22T06:18:52.920Z,94.5
2022-10-22T06:23:52.930Z,94.5
2022-10-22T06:28:52.933Z,94.5
2022-10-22T06:33:52.946Z,94.0
2022-10-22T06:38:52.931Z,94.5
2022-10-22T06:43:52.942Z,94.0
2022-10-22T06:48:52.943Z,94.0
2022-10-22T06:53:52.946Z,94.0
2022-10-22T06:58:52.942Z,94.0
2022-10-22T07:03:52.942Z,94.0
2022-10-22T07:08:53.059Z,94.0
2022-10-22T07:13:52.953Z,94.0
2022-10-22T07:18:52.963Z,94.0
2022-10-22T07:23:52.960Z,94.0
2022-10-22T07:28:52.959Z,94.0
2022-10-22T07:33:52.971Z,93.5
2022-10-22T07:38:52.990Z,93.5
2022-10-22T07:43:52.977Z,93.5
2022-10-22T07:48:52.972Z,93.5
2022-10-22T07:53:52.981Z,93.0
2022-10-22T07:58:53.038Z,93.0
2022-10-22T08:03:52.982Z,92.5
2022-10-22T08:08:53.079Z,92.5
2022-10-22T08:13:52.986Z,92.5
2022-10-22T08:18:52.988Z,92.5
2022-10-22T08:23:52.992Z,92.5
2022-10-22T08:28:53.005Z,92.5
2022-10-22T08:33:53.001Z,92.5
2022-10-22T08:38:53.017Z,92.0
2022-10-22T08:43:53.019Z,91.5
2022-10-22T08:48:53.014Z,91.5
2022-10-22T08:53:53.027Z,91.0
2022-10-22T08:58:53.027Z,90.0
2022-10-22T09:03:53.038Z,89.5
2022-10-22T09:08:53.090Z,89.0
2022-10-22T09:13:53.039Z,88.5
2022-10-22T09:18:53.039Z,87.5
2022-10-22T09:23:53.040Z,87.0
2022-10-22T09:28:53.053Z,86.5
2022-10-22T09:33:53.049Z,86.0
2022-10-22T09:38:53.056Z,86.0
2022-10-22T09:43:53.056Z,85.5
2022-10-22T09:48:53.056Z,85.5
2022-10-22T09:53:53.067Z,84.5
2022-10-22T09:58:53.079Z,84.5
2022-10-22T10:03:53.064Z,84.5
2022-10-22T10:08:53.194Z,84.5
2022-10-22T10:13:53.076Z,84.5
2022-10-22T10:18:53.075Z,84.0
2022-10-22T10:23:53.081Z,84.0
2022-10-22T10:28:53.081Z,84.0
2022-10-22T10:33:53.097Z,83.5
2022-10-22T10:38:53.087Z,83.0
2022-10-22T10:43:53.116Z,82.5
2022-10-22T10:48:53.106Z,82.5
2022-10-22T10:53:53.098Z,82.0
2022-10-22T10:58:53.099Z,81.5
2022-10-22T11:03:53.110Z,81.5
2022-10-22T11:08:53.154Z,81.0
2022-10-22T11:13:53.124Z,81.0
2022-10-22T11:18:53.116Z,80.5
2022-10-22T11:23:53.123Z,79.5
2022-10-22T11:28:53.131Z,79.0
2022-10-22T11:33:57.369Z,79.0
2022-10-22T11:38:53.136Z,79.5
2022-10-22T11:43:53.150Z,78.0
2022-10-22T11:48:53.228Z,77.0
2022-10-22T11:53:53.258Z,76.5
2022-10-22T11:58:54.866Z,75.5
2022-10-22T12:03:53.153Z,74.5
2022-10-22T12:08:53.273Z,75.0
2022-10-22T12:13:53.161Z,74.5
2022-10-22T12:18:53.178Z,74.0
2022-10-22T12:23:53.165Z,75.0
2022-10-22T12:28:53.168Z,73.5
2022-10-22T12:33:53.177Z,72.5
2022-10-22T12:38:53.178Z,72.0
2022-10-22T12:43:53.175Z,72.0
2022-10-22T12:48:53.180Z,72.0
2022-10-22T12:53:53.192Z,71.5
2022-10-22T12:58:53.193Z,72.0
2022-10-22T13:03:53.191Z,72.0
2022-10-22T13:08:53.259Z,72.5
2022-10-22T13:13:53.195Z,72.0
2022-10-22T13:18:53.204Z,72.5
2022-10-22T13:23:53.202Z,72.0
2022-10-22T13:28:53.211Z,71.0
2022-10-22T13:33:53.213Z,70.5
2022-10-22T13:38:53.212Z,70.0
2022-10-22T13:43:53.220Z,70.0
2022-10-22T13:48:53.225Z,69.0
2022-10-22T13:53:53.224Z,69.0
2022-10-22T13:58:53.229Z,68.5
2022-10-22T14:03:53.232Z,68.0
2022-10-22T14:08:53.292Z,67.5
2022-10-22T14:13:53.247Z,67.5
2022-10-22T14:18:53.250Z,67.5
2022-10-22T14:23:53.255Z,67.5
2022-10-22T14:33:53.269Z,67.5
2022-10-22T14:38:53.254Z,67.5
2022-10-22T14:43:53.253Z,67.5
2022-10-22T14:48:53.263Z,67.5
2022-10-22T14:53:53.261Z,68.0
2022-10-22T14:58:53.267Z,67.5
2022-10-22T15:03:53.265Z,68.0
2022-10-22T15:08:53.363Z,68.0
2022-10-22T15:13:53.298Z,67.5
2022-10-22T15:18:53.280Z,67.5
2022-10-22T15:23:53.279Z,68.0
2022-10-22T15:28:53.280Z,68.0
2022-10-22T15:33:53.283Z,67.5
2022-10-22T15:38:53.280Z,68.0
2022-10-22T15:43:53.288Z,68.5
2022-10-22T15:48:53.293Z,68.5
2022-10-22T15:53:53.299Z,69.0
2022-10-22T15:58:53.301Z,69.5
2022-10-22T16:03:53.298Z,69.5
2022-10-22T16:08:53.347Z,70.0
2022-10-22T16:13:53.303Z,70.5
2022-10-22T16:18:53.311Z,70.5
2022-10-22T16:23:53.299Z,71.0
2022-10-22T16:28:53.310Z,71.0
2022-10-22T16:33:53.306Z,71.5
2022-10-22T16:38:53.307Z,72.0
2022-10-22T16:43:53.336Z,72.5
2022-10-22T16:48:53.316Z,73.0
2022-10-22T16:53:53.310Z,73.0
2022-10-22T16:58:53.312Z,74.0
2022-10-22T17:03:53.311Z,74.0
2022-10-22T17:08:53.420Z,74.5
2022-10-22T17:13:53.327Z,74.5
2022-10-22T17:18:53.328Z,75.0
2022-10-22T17:23:53.328Z,75.5
2022-10-22T17:28:53.329Z,76.0
2022-10-22T17:33:53.327Z,76.0
2022-10-22T17:38:53.333Z,76.5
2022-10-22T17:43:53.335Z,77.0
2022-10-22T17:48:53.340Z,76.5
2022-10-22T17:53:53.338Z,77.5
2022-10-22T17:58:53.338Z,78.0
2022-10-22T18:03:53.346Z,78.5
2022-10-22T18:13:53.351Z,78.5
2022-10-22T18:18:53.347Z,79.0
2022-10-22T18:23:53.352Z,79.0
2022-10-22T18:28:53.369Z,79.5
2022-10-22T18:38:53.356Z,80.0
2022-10-22T18:43:53.365Z,80.0
2022-10-22T18:48:53.375Z,80.0
2022-10-22T18:54:05.060Z,80.5
2022-10-22T18:58:53.384Z,81.0
2022-10-22T19:03:53.366Z,81.0
2022-10-22T19:08:53.417Z,81.5
2022-10-22T19:13:53.377Z,81.5
2022-10-22T19:18:53.384Z,82.0
2022-10-22T19:23:53.379Z,82.0
2022-10-22T19:28:53.377Z,82.0
2022-10-22T19:33:53.387Z,82.0
2022-10-22T19:38:53.383Z,82.5
2022-10-22T19:43:53.386Z,82.5
2022-10-22T19:48:53.398Z,83.0
2022-10-22T19:53:53.404Z,83.5
2022-10-22T19:58:53.388Z,83.5
2022-10-22T20:03:53.399Z,83.5
2022-10-22T20:08:56.018Z,84.0
2022-10-22T20:13:53.405Z,84.5
2022-10-22T20:18:53.403Z,84.5
2022-10-22T20:23:53.404Z,84.5
2022-10-22T20:28:53.413Z,84.5
2022-10-22T20:33:53.407Z,84.5
2022-10-22T20:38:53.413Z,84.5
2022-10-22T20:43:53.421Z,84.5
2022-10-22T20:48:53.412Z,85.0
2022-10-22T20:53:53.419Z,85.0
2022-10-22T20:58:53.427Z,85.0
2022-10-22T21:03:53.429Z,85.0
2022-10-22T21:08:53.506Z,85.0
2022-10-22T21:13:53.434Z,85.0
2022-10-22T21:18:53.435Z,85.0
2022-10-22T21:23:53.441Z,85.5
2022-10-22T21:28:53.440Z,85.5
2022-10-22T21:33:53.445Z,85.5
2022-10-22T21:38:53.447Z,85.5
2022-10-22T21:43:53.450Z,86.0
2022-10-22T21:48:53.455Z,86.0
2022-10-22T21:53:53.584Z,86.0
2022-10-22T21:58:53.456Z,86.0
2022-10-22T22:08:53.560Z,86.0
2022-10-22T22:13:53.463Z,86.0
2022-10-22T22:18:53.491Z,86.0
2022-10-22T22:23:53.472Z,86.0
2022-10-22T22:28:53.478Z,86.0
2022-10-22T22:33:53.478Z,86.0
2022-10-22T22:38:53.475Z,86.0
2022-10-22T22:48:53.487Z,86.5
2022-10-22T22:53:53.489Z,86.5
2022-10-22T22:58:53.495Z,86.5
2022-10-22T23:03:53.502Z,87.0
2022-10-22T23:08:53.615Z,87.0
2022-10-22T23:13:53.499Z,87.0
2022-10-22T23:18:53.505Z,87.0
2022-10-22T23:23:53.497Z,87.0
2022-10-22T23:28:53.505Z,87.0
2022-10-22T23:33:53.503Z,87.0
2022-10-22T23:38:53.519Z,87.0
2022-10-22T23:43:53.512Z,87.0
2022-10-22T23:48:53.530Z,87.0
2022-10-22T23:53:53.527Z,87.0
2022-10-22T23:58:53.516Z,87.0
